Time;durP1;ratioP1;P1;durP2;ratioP2;P2;SDS_P1;SDS_P2;PMS_P1;PMS_P2;Temp;Humidity;BMP_temperature;BMP_pressure;BME280_temperature;BME280_humidity;BME280_pressure;Samples;Min_cycle;Max_cycle;Signal;HPM_P1;HPM_P2
2021/01/12 00:00:21;;;;;;;65.25;40.70;;;51.20;2227.20;;;;;;5073181;28;20032;-87
2021/01/12 00:02:49;;;;;;;54.33;34.28;;;26.50;2201.60;;;;;;5084072;28;20025;-87
2021/01/12 00:05:16;;;;;;;45.10;27.00;;;51.20;2227.20;;;;;;5083076;28;20028;-86
2021/01/12 00:07:42;;;;;;;39.70;25.15;;;51.20;2227.20;;;;;;5079559;28;20114;-89
2021/01/12 00:10:08;;;;;;;59.72;34.10;;;51.20;2227.20;;;;;;5072872;28;20031;-88
2021/01/12 00:12:34;;;;;;;48.63;28.80;;;26.50;2201.60;;;;;;5072998;28;20028;-89
2021/01/12 00:15:01;;;;;;;58.10;35.10;;;51.40;2227.20;;;;;;5073021;28;20027;-86
2021/01/12 00:17:27;;;;;;;75.50;40.08;;;51.20;2227.20;;;;;;5090724;28;20486;-86
2021/01/12 00:19:53;;;;;;;59.38;34.38;;;51.30;2227.20;;;;;;5092804;28;20028;-88
2021/01/12 00:22:19;;;;;;;50.15;30.50;;;51.30;2227.20;;;;;;5092584;28;20356;-87
2021/01/12 00:24:47;;;;;;;36.72;23.15;;;51.30;2227.20;;;;;;5092982;28;20024;-87
2021/01/12 00:27:18;;;;;;;42.17;24.85;;;51.20;2227.20;;;;;;5092758;28;20024;-87
2021/01/12 00:29:44;;;;;;;47.05;26.77;;;51.20;2227.20;;;;;;5092082;28;20039;-83
2021/01/12 00:32:18;;;;;;;53.47;30.55;;;26.50;2201.60;;;;;;5072779;28;20037;-86
2021/01/12 00:34:45;;;;;;;59.45;31.33;;;26.50;2201.60;;;;;;5072319;28;20017;-87
2021/01/12 00:37:11;;;;;;;40.58;23.95;;;26.50;2201.60;;;;;;5071994;28;20480;-86
2021/01/12 00:39:37;;;;;;;47.88;28.17;;;26.50;2201.60;;;;;;5076819;28;20075;-86
2021/01/12 00:42:04;;;;;;;45.38;26.88;;;26.50;2201.60;;;;;;5076315;28;20120;-88
2021/01/12 00:44:30;;;;;;;40.28;25.40;;;51.30;2227.20;;;;;;5075970;28;20025;-86
2021/01/12 00:46:56;;;;;;;41.47;27.27;;;26.50;2201.60;;;;;;5076137;28;20403;-88
2021/01/12 00:49:23;;;;;;;37.95;22.52;;;26.50;2201.60;;;;;;5076158;28;20032;-87
2021/01/12 00:51:49;;;;;;;36.00;21.38;;;26.30;2201.60;;;;;;5075896;28;20025;-87
2021/01/12 00:54:18;;;;;;;35.67;22.13;;;26.30;2201.60;;;;;;5076038;28;20017;-87
2021/01/12 00:56:44;;;;;;;36.50;24.52;;;26.30;2201.60;;;;;;5075760;28;20035;-87
2021/01/12 00:59:10;;;;;;;33.20;21.92;;;26.50;2201.60;;;;;;5075884;28;20035;-87
2021/01/12 01:01:37;;;;;;;33.50;23.10;;;26.40;2201.60;;;;;;5076366;28;20028;-87
2021/01/12 01:04:04;;;;;;;32.33;21.65;;;26.20;2201.60;;;;;;5075828;28;20444;-86
2021/01/12 01:06:35;;;;;;;33.72;21.98;;;26.20;2201.60;;;;;;5075572;28;20048;-87
2021/01/12 01:09:01;;;;;;;44.75;26.15;;;26.20;2201.60;;;;;;5073934;28;20052;-86
2021/01/12 01:11:27;;;;;;;37.60;22.58;;;26.20;2201.60;;;;;;5075358;28;20126;-87
2021/01/12 01:13:53;;;;;;;37.92;23.20;;;26.30;2201.60;;;;;;5075679;28;20025;-87
2021/01/12 01:16:19;;;;;;;40.22;25.15;;;26.30;2201.60;;;;;;5075713;28;20040;-87
2021/01/12 01:18:45;;;;;;;38.78;25.38;;;26.30;2201.60;;;;;;5075623;28;20530;-87
2021/01/12 01:21:14;;;;;;;36.45;23.42;;;26.30;2201.60;;;;;;5075332;28;20025;-86
2021/01/12 01:23:40;;;;;;;43.67;24.70;;;26.30;2201.60;;;;;;5075486;28;20024;-87
2021/01/12 01:26:06;;;;;;;46.47;25.48;;;26.40;2201.60;;;;;;5075715;28;20072;-87
2021/01/12 01:28:32;;;;;;;39.80;21.83;;;26.30;2201.60;;;;;;5075441;28;20020;-86
2021/01/12 01:30:58;;;;;;;35.03;20.17;;;26.30;2201.60;;;;;;5074894;28;20044;-88
2021/01/12 01:33:24;;;;;;;33.83;21.23;;;26.30;2201.60;;;;;;5075202;28;20027;-86
2021/01/12 01:35:50;;;;;;;44.92;24.40;;;26.20;2201.60;;;;;;5074986;28;20028;-87
2021/01/12 01:38:16;;;;;;;37.00;22.85;;;26.20;2201.60;;;;;;5075704;28;20017;-87
2021/01/12 01:40:42;;;;;;;39.13;22.63;;;26.20;2201.60;;;;;;5074646;28;20074;-87
2021/01/12 01:43:15;;;;;;;39.13;22.00;;;26.20;2201.60;;;;;;5074811;28;20074;-86
2021/01/12 01:45:42;;;;;;;43.65;24.38;;;26.20;2201.60;;;;;;5077318;28;20032;-87
2021/01/12 01:48:08;;;;;;;27.60;19.17;;;26.20;2201.60;;;;;;5095808;28;20032;-87
2021/01/12 01:50:35;;;;;;;35.20;19.00;;;26.20;2201.60;;;;;;5094286;28;20024;-87
2021/01/12 01:53:01;;;;;;;31.98;21.30;;;26.20;2201.60;;;;;;5094947;28;20123;-86
2021/01/12 01:55:27;;;;;;;34.45;20.02;;;26.20;2201.60;;;;;;5095253;28;20111;-87
2021/01/12 01:57:53;;;;;;;28.67;17.60;;;26.20;2201.60;;;;;;5095042;28;20069;-87
2021/01/12 02:00:21;;;;;;;26.38;17.63;;;26.20;2201.60;;;;;;5094529;28;20031;-86
2021/01/12 02:03:08;;;;;;;31.42;18.92;;;26.10;2201.60;;;;;;5094226;28;20394;-87
2021/01/12 02:05:39;;;;;;;28.08;17.35;;;26.10;2201.60;;;;;;5094286;28;20024;-85
2021/01/12 02:11:12;;;;;;;30.23;18.58;;;26.10;2201.60;;;;;;5096289;28;20443;-86
2021/01/12 02:13:41;;;;;;;27.17;18.98;;;26.10;2201.60;;;;;;5094492;28;20043;-87
2021/01/12 02:16:07;;;;;;;28.52;17.05;;;26.20;2201.60;;;;;;5086088;28;20056;-86
2021/01/12 02:18:36;;;;;;;23.15;15.75;;;26.30;2201.60;;;;;;5074536;28;20460;-88
2021/01/12 02:21:04;;;;;;;24.33;15.70;;;26.20;2201.60;;;;;;5073370;28;20060;-87
2021/01/12 02:23:36;;;;;;;29.83;19.70;;;26.30;2201.60;;;;;;5074868;28;20039;-88
2021/01/12 02:26:03;;;;;;;25.43;17.17;;;26.30;2201.60;;;;;;5074067;28;20024;-87
2021/01/12 02:28:29;;;;;;;27.85;18.17;;;51.20;2227.20;;;;;;5073983;28;20028;-87
2021/01/12 02:30:55;;;;;;;40.25;26.25;;;26.40;2201.60;;;;;;5074271;28;20127;-87
2021/01/12 02:33:21;;;;;;;44.25;29.05;;;26.40;2201.60;;;;;;5074075;28;20391;-86
2021/01/12 02:35:51;;;;;;;52.83;34.55;;;26.50;2201.60;;;;;;5073770;28;20016;-86
2021/01/12 02:38:18;;;;;;;75.05;47.58;;;26.50;2201.60;;;;;;5073898;28;20029;-86
2021/01/12 02:40:44;;;;;;;131.77;77.72;;;26.50;2201.60;;;;;;5074006;28;20025;-87
2021/01/12 02:43:10;;;;;;;108.07;66.95;;;26.50;2201.60;;;;;;5073659;28;20369;-87
2021/01/12 02:45:36;;;;;;;88.10;54.17;;;26.50;2201.60;;;;;;5074319;28;20470;-90
2021/01/12 02:48:02;;;;;;;54.00;34.20;;;26.50;2201.60;;;;;;5073695;28;20025;-86
2021/01/12 02:50:28;;;;;;;51.17;31.15;;;26.50;2201.60;;;;;;5073601;28;20115;-85
2021/01/12 02:52:54;;;;;;;36.60;24.13;;;26.40;2201.60;;;;;;5073953;28;20499;-87
2021/01/12 02:55:20;;;;;;;57.30;34.33;;;26.40;2201.60;;;;;;5073451;28;20032;-86
2021/01/12 02:57:46;;;;;;;33.08;22.08;;;26.40;2201.60;;;;;;5073497;28;20471;-87
2021/01/12 03:00:14;;;;;;;23.30;15.95;;;26.40;2201.60;;;;;;5073257;28;20541;-87
2021/01/12 03:02:40;;;;;;;21.48;15.32;;;26.30;2201.60;;;;;;5073299;28;20020;-87
2021/01/12 03:05:07;;;;;;;23.67;16.92;;;26.20;2201.60;;;;;;5073534;28;20031;-86
2021/01/12 03:07:34;;;;;;;24.00;16.08;;;26.20;2201.60;;;;;;5073605;28;20021;-87
2021/01/12 03:10:00;;;;;;;23.77;16.65;;;26.50;2201.60;;;;;;5073517;28;20024;-88
2021/01/12 03:12:26;;;;;;;36.05;23.27;;;26.20;2201.60;;;;;;5073136;28;20052;-88
2021/01/12 03:14:53;;;;;;;28.50;17.27;;;26.30;2201.60;;;;;;5073343;28;20052;-87
2021/01/12 03:17:19;;;;;;;27.73;18.83;;;26.20;2201.60;;;;;;5073329;28;20046;-86
2021/01/12 03:19:46;;;;;;;25.92;18.00;;;26.20;2201.60;;;;;;5073155;28;20025;-87
2021/01/12 03:22:12;;;;;;;31.23;21.83;;;26.20;2201.60;;;;;;5073155;28;20388;-88
2021/01/12 03:24:38;;;;;;;27.35;19.48;;;26.30;2201.60;;;;;;5073317;28;20391;-87
2021/01/12 03:27:05;;;;;;;21.38;14.57;;;26.30;2201.60;;;;;;5073386;28;20081;-87
2021/01/12 03:29:34;;;;;;;20.70;15.13;;;26.20;2201.60;;;;;;5073541;28;20033;-89
2021/01/12 03:32:02;;;;;;;29.35;18.27;;;26.30;2201.60;;;;;;5085964;28;20498;-86
2021/01/12 03:34:28;;;;;;;22.63;14.95;;;26.20;2201.60;;;;;;5093590;28;20054;-86
2021/01/12 03:36:55;;;;;;;21.63;16.25;;;26.20;2201.60;;;;;;5093037;28;20020;-86
2021/01/12 03:39:20;;;;;;;28.02;19.08;;;26.20;2201.60;;;;;;5093503;28;20028;-85
2021/01/12 03:41:46;;;;;;;22.88;16.23;;;26.30;2201.60;;;;;;5093270;28;20024;-85
2021/01/12 03:44:13;;;;;;;23.33;14.90;;;26.30;2201.60;;;;;;5093966;28;20071;-86
2021/01/12 03:46:39;;;;;;;25.88;18.88;;;26.30;2201.60;;;;;;5093450;28;20052;-88
2021/01/12 03:49:06;;;;;;;25.20;16.63;;;26.30;2201.60;;;;;;5093101;28;20077;-88
2021/01/12 03:51:32;;;;;;;34.05;20.38;;;26.30;2201.60;;;;;;5093330;28;20031;-87
2021/01/12 03:53:58;;;;;;;22.58;15.73;;;26.20;2201.60;;;;;;5093129;28;20016;-87
2021/01/12 03:56:24;;;;;;;29.00;18.55;;;26.30;2201.60;;;;;;5092958;28;20020;-87
2021/01/12 03:58:50;;;;;;;21.35;15.27;;;26.30;2201.60;;;;;;5093114;28;20391;-86
2021/01/12 04:01:16;;;;;;;26.13;16.98;;;26.30;2201.60;;;;;;5075482;28;20021;-86
2021/01/12 04:03:43;;;;;;;29.83;18.98;;;26.30;2201.60;;;;;;5072839;28;20025;-86
2021/01/12 04:06:13;;;;;;;21.70;14.75;;;51.60;2227.20;;;;;;5072020;28;20028;-87
2021/01/12 04:08:44;;;;;;;27.17;17.35;;;26.30;2201.60;;;;;;5073419;28;20090;-86
2021/01/12 04:11:12;;;;;;;32.30;20.73;;;26.30;2201.60;;;;;;5072656;28;20056;-87
2021/01/12 04:13:39;;;;;;;23.58;16.98;;;26.40;2201.60;;;;;;5075203;28;20430;-87
2021/01/12 04:16:05;;;;;;;23.95;17.02;;;26.30;2201.60;;;;;;5076698;28;20115;-86
2021/01/12 04:18:31;;;;;;;23.10;17.00;;;26.30;2201.60;;;;;;5076456;28;20025;-87
2021/01/12 04:20:57;;;;;;;22.45;15.25;;;26.20;2201.60;;;;;;5076437;28;20420;-88
2021/01/12 04:23:23;;;;;;;23.75;16.58;;;26.20;2201.60;;;;;;5076391;28;20025;-87
2021/01/12 04:25:49;;;;;;;25.35;15.63;;;26.20;2201.60;;;;;;5077040;28;20025;-87
2021/01/12 04:28:15;;;;;;;26.20;17.20;;;26.20;2201.60;;;;;;5076430;28;20111;-85
2021/01/12 04:30:42;;;;;;;25.83;17.30;;;26.10;2201.60;;;;;;5075099;28;20047;-86
2021/01/12 04:33:08;;;;;;;22.10;14.73;;;26.00;2201.60;;;;;;5076209;28;20020;-85
2021/01/12 04:42:14;;;;;;;;;;;26.00;2201.60;;;;;;5072219;28;20042;-87
2021/01/12 04:54:02;;;;;;;25.60;16.65;;;26.10;2201.60;;;;;;5077668;28;20043;-86
2021/01/12 04:56:29;;;;;;;20.67;12.50;;;26.10;2201.60;;;;;;5076061;28;20032;-86
2021/01/12 04:58:55;;;;;;;20.13;13.20;;;26.10;2201.60;;;;;;5075892;28;20025;-88
2021/01/12 05:01:23;;;;;;;29.00;17.35;;;26.10;2201.60;;;;;;5076012;28;20027;-87
2021/01/12 05:03:52;;;;;;;47.80;25.35;;;26.10;2201.60;;;;;;5075666;28;20051;-87
2021/01/12 05:06:21;;;;;;;63.92;32.30;;;26.10;2201.60;;;;;;5075759;28;20024;-87
2021/01/12 05:09:02;;;;;;;59.42;29.35;;;26.10;2201.60;;;;;;5075620;28;20021;-86
2021/01/12 05:11:33;;;;;;;57.75;30.70;;;26.20;2201.60;;;;;;5076483;28;20024;-86
2021/01/12 05:18:18;;;;;;;33.47;18.98;;;26.00;2201.60;;;;;;5076475;28;20089;-86
2021/01/12 05:41:29;;;;;;;33.75;22.83;;;26.00;2201.60;;;;;;5076777;28;20525;-87
2021/01/12 05:43:56;;;;;;;35.35;20.58;;;26.00;2201.60;;;;;;5075006;28;20020;-87
2021/01/12 05:46:22;;;;;;;26.98;17.55;;;26.00;2201.60;;;;;;5075174;28;20017;-87
2021/01/12 05:48:49;;;;;;;28.10;20.95;;;26.00;2201.60;;;;;;5075548;28;20016;-86
2021/01/12 05:51:16;;;;;;;25.02;17.17;;;26.10;2201.60;;;;;;5074695;28;20090;-86
2021/01/12 05:54:29;;;;;;;27.38;18.50;;;26.00;2201.60;;;;;;5074539;28;20056;-87
2021/01/12 05:57:23;;;;;;;24.40;15.65;;;26.10;2201.60;;;;;;5075586;28;20025;-86
2021/01/12 06:00:01;;;;;;;26.52;17.13;;;26.00;2201.60;;;;;;5074840;28;20056;-86
2021/01/12 06:05:31;;;;;;;28.80;18.83;;;26.00;2201.60;;;;;;5076736;28;20471;-86
2021/01/12 06:07:57;;;;;;;41.83;25.10;;;26.00;2201.60;;;;;;5079679;28;20095;-86
2021/01/12 06:10:26;;;;;;;48.78;29.85;;;26.10;2201.60;;;;;;5081918;28;20025;-87
2021/01/12 06:12:58;;;;;;;43.67;26.55;;;26.10;2201.60;;;;;;5081669;28;20123;-86
2021/01/12 06:15:27;;;;;;;61.53;35.67;;;26.10;2201.60;;;;;;5078101;28;20085;-87
2021/01/12 06:18:04;;;;;;;57.72;36.05;;;26.10;2201.60;;;;;;5074092;28;20094;-86
2021/01/12 06:20:43;;;;;;;53.33;35.55;;;26.10;2201.60;;;;;;5074269;28;20044;-87
2021/01/12 06:23:17;;;;;;;51.40;32.72;;;26.10;2201.60;;;;;;5074172;28;20024;-86
2021/01/12 06:25:45;;;;;;;41.22;26.60;;;26.10;2201.60;;;;;;5074173;28;20021;-87
2021/01/12 06:28:11;;;;;;;41.47;27.17;;;26.10;2201.60;;;;;;5074514;28;20483;-88
2021/01/12 06:30:37;;;;;;;41.83;27.75;;;26.10;2201.60;;;;;;5073712;28;20048;-87
2021/01/12 06:33:04;;;;;;;31.88;20.08;;;26.30;2201.60;;;;;;5074018;28;20115;-86
2021/01/12 06:35:37;;;;;;;41.65;25.25;;;26.10;2201.60;;;;;;5074032;28;20086;-87
2021/01/12 06:38:07;;;;;;;31.33;20.92;;;26.10;2201.60;;;;;;5074341;28;20475;-86
2021/01/12 06:40:35;;;;;;;22.17;16.45;;;26.00;2201.60;;;;;;5073573;28;20029;-87
2021/01/12 06:43:32;;;;;;;27.58;16.67;;;26.20;2201.60;;;;;;5074041;28;20495;-86
2021/01/12 07:32:53;;;;;;;44.58;25.42;;;25.90;2201.60;;;;;;5117330;28;20518;-84
2021/01/12 08:05:24;;;;;;;41.78;27.95;;;26.00;2201.60;;;;;;5118580;22;20067;-85
2021/01/12 08:08:03;;;;;;;46.63;29.73;;;26.00;2201.60;;;;;;5059974;28;20035;-86
2021/01/12 08:20:38;;;;;;;64.15;47.97;;;26.00;2201.60;;;;;;5087206;22;20060;-87
2021/01/12 08:23:05;;;;;;;52.08;34.25;;;26.00;2201.60;;;;;;5039845;28;20055;-86
2021/01/12 08:25:48;;;;;;;46.42;32.63;;;26.00;2201.60;;;;;;5039105;28;20021;-86
2021/01/12 08:32:09;;;;;;;52.83;35.05;;;26.00;2201.60;;;;;;5057822;28;20091;-86
2021/01/12 08:47:29;;;;;;;86.53;50.17;;;26.20;2201.60;;;;;;5052364;28;20564;-86
2021/01/12 08:50:22;;;;;;;83.15;52.45;;;26.20;2201.60;;;;;;5039223;28;20124;-87
2021/01/12 08:52:49;;;;;;;75.68;50.45;;;26.30;2201.60;;;;;;5038933;28;20128;-88
2021/01/12 08:55:20;;;;;;;75.13;51.63;;;26.40;2201.60;;;;;;5039128;28;20039;-86
2021/01/12 08:57:57;;;;;;;68.18;48.28;;;26.50;2201.60;;;;;;5039387;28;20025;-86
2021/01/12 09:00:31;;;;;;;70.93;53.78;;;26.50;2201.60;;;;;;5038642;28;20083;-87
2021/01/12 09:02:57;;;;;;;77.60;67.75;;;26.50;2201.60;;;;;;5038931;28;20021;-86
2021/01/12 09:05:24;;;;;;;68.95;47.78;;;26.50;2201.60;;;;;;5038804;28;20387;-87
2021/01/12 09:08:10;;;;;;;47.60;34.60;;;26.50;2201.60;;;;;;5038735;28;20028;-87
2021/01/12 09:10:39;;;;;;;59.65;44.53;;;26.50;2201.60;;;;;;5038896;28;20028;-86
2021/01/12 09:13:06;;;;;;;57.33;39.85;;;26.50;2201.60;;;;;;5038983;28;20061;-87
2021/01/12 09:15:35;;;;;;;50.53;29.13;;;26.50;2201.60;;;;;;5038147;28;20020;-88
2021/01/12 09:18:23;;;;;;;48.50;30.15;;;26.40;2201.60;;;;;;5038772;28;20480;-88
2021/01/12 09:24:19;;;;;;;47.67;33.72;;;26.40;2201.60;;;;;;5077511;28;20043;-86
2021/01/12 09:26:46;;;;;;;53.30;34.28;;;26.40;2201.60;;;;;;5058421;28;20036;-87
2021/01/12 09:29:12;;;;;;;43.80;28.10;;;26.30;2201.60;;;;;;5058816;28;20059;-86
2021/01/12 09:35:38;;;;;;;44.03;29.60;;;26.30;2201.60;;;;;;5038601;28;20522;-86
2021/01/12 09:38:34;;;;;;;44.67;28.17;;;26.30;2201.60;;;;;;5072954;28;20020;-87
2021/01/12 09:41:01;;;;;;;52.85;34.80;;;26.20;2201.60;;;;;;5072434;28;20492;-87
2021/01/12 09:43:27;;;;;;;44.63;29.50;;;26.30;2201.60;;;;;;5058264;28;20467;-88
2021/01/12 09:45:56;;;;;;;41.33;28.65;;;26.20;2201.60;;;;;;5059114;28;20076;-87
2021/01/12 09:58:50;;;;;;;43.03;28.27;;;26.20;2201.60;;;;;;5076038;28;20051;-86
2021/01/12 10:30:33;;;;;;;70.90;42.25;;;26.30;2201.60;;;;;;4898169;29;20055;-87
2021/01/12 10:32:59;;;;;;;68.82;42.95;;;26.30;2201.60;;;;;;4883006;29;20029;-87
2021/01/12 10:35:25;;;;;;;51.20;32.97;;;26.30;2201.60;;;;;;4956441;28;20510;-87
2021/01/12 10:40:27;;;;;;;56.33;35.20;;;26.40;2201.60;;;;;;5197211;23;20064;-89
2021/01/12 10:42:53;;;;;;;57.40;35.88;;;26.30;2201.60;;;;;;5037112;28;20029;-89
2021/01/12 10:45:20;;;;;;;83.90;53.80;;;26.30;2201.60;;;;;;5040823;28;20028;-88
2021/01/12 10:47:46;;;;;;;106.82;60.85;;;26.40;2201.60;;;;;;5057164;28;20047;-88
2021/01/12 10:53:34;;;;;;;86.25;55.75;;;26.40;2201.60;;;;;;5075111;28;20102;-84
2021/01/12 10:56:01;;;;;;;67.38;41.70;;;26.40;2201.60;;;;;;5037866;28;20021;-85
2021/01/12 10:58:28;;;;;;;57.63;37.58;;;26.40;2201.60;;;;;;5027348;28;20025;-86
2021/01/12 11:01:00;;;;;;;66.20;42.03;;;26.40;2201.60;;;;;;5031772;28;20044;-84
2021/01/12 11:03:27;;;;;;;67.70;39.25;;;26.40;2201.60;;;;;;5033075;28;20020;-85
2021/01/12 11:05:54;;;;;;;105.95;68.32;;;26.30;2201.60;;;;;;5035266;28;20082;-85
2021/01/12 11:08:20;;;;;;;102.50;62.83;;;26.20;2201.60;;;;;;5045531;28;20093;-85
2021/01/12 11:10:46;;;;;;;79.53;47.50;;;26.30;2201.60;;;;;;5036918;28;20033;-84
2021/01/12 11:13:12;;;;;;;102.30;62.60;;;26.40;2201.60;;;;;;5035897;28;20025;-81
2021/01/12 11:15:42;;;;;;;103.68;67.20;;;26.40;2201.60;;;;;;5036272;28;20110;-83
2021/01/12 11:18:08;;;;;;;77.30;50.67;;;26.50;2201.60;;;;;;5036707;28;20029;-87
2021/01/12 11:20:34;;;;;;;64.82;43.13;;;51.20;2227.20;;;;;;5036325;28;20033;-86
2021/01/12 11:23:00;;;;;;;67.57;43.55;;;51.20;2227.20;;;;;;5036036;28;20025;-87
2021/01/12 11:25:30;;;;;;;58.60;38.38;;;51.30;2227.20;;;;;;5036127;28;20079;-88
2021/01/12 11:27:56;;;;;;;66.78;40.33;;;51.20;2227.20;;;;;;5040492;28;20059;-88
2021/01/12 11:30:23;;;;;;;63.60;41.95;;;51.20;2227.20;;;;;;5036249;28;20067;-87
2021/01/12 11:32:54;;;;;;;56.42;36.80;;;51.30;2227.20;;;;;;5034240;28;20056;-87
2021/01/12 11:35:23;;;;;;;65.53;43.05;;;51.40;2227.20;;;;;;5030069;28;20019;-86
2021/01/12 11:37:51;;;;;;;55.97;34.13;;;51.30;2227.20;;;;;;5034058;28;20078;-88
2021/01/12 11:40:17;;;;;;;53.92;35.85;;;51.30;2227.20;;;;;;5034059;28;20463;-85
2021/01/12 11:42:43;;;;;;;63.55;40.05;;;51.40;2227.20;;;;;;5034575;28;20140;-86
2021/01/12 11:45:10;;;;;;;60.47;38.28;;;51.30;2227.20;;;;;;5035156;28;20021;-87
2021/01/12 11:47:36;;;;;;;73.65;45.13;;;51.40;2227.20;;;;;;5035235;28;20025;-86
2021/01/12 11:50:08;;;;;;;65.90;43.33;;;51.20;2227.20;;;;;;5035573;28;20075;-87
2021/01/12 11:52:33;;;;;;;80.32;51.35;;;51.30;2227.20;;;;;;5035476;28;20388;-86
2021/01/12 11:54:59;;;;;;;76.45;48.15;;;51.30;2227.20;;;;;;5035126;28;20017;-87
2021/01/12 11:57:25;;;;;;;80.70;49.38;;;51.40;2227.20;;;;;;5035096;28;20024;-86
2021/01/12 11:59:51;;;;;;;76.68;49.22;;;51.40;2227.20;;;;;;5035536;28;20063;-86
2021/01/12 12:02:18;;;;;;;59.50;38.45;;;51.40;2227.20;;;;;;5033591;28;20021;-88
2021/01/12 12:04:44;;;;;;;61.38;38.25;;;51.40;2227.20;;;;;;5026951;28;20025;-86
2021/01/12 12:07:10;;;;;;;62.13;42.03;;;51.40;2227.20;;;;;;5026739;28;20028;-86
2021/01/12 12:09:36;;;;;;;63.58;43.33;;;51.40;2227.20;;;;;;5036018;28;20115;-87
2021/01/12 12:12:05;;;;;;;58.08;40.90;;;51.50;2227.20;;;;;;5043417;28;20041;-88
2021/01/12 12:14:31;;;;;;;67.00;44.25;;;51.60;2227.20;;;;;;5041988;28;20029;-89
2021/01/12 12:16:58;;;;;;;51.10;34.80;;;51.50;2227.20;;;;;;5049553;28;20024;-88
2021/01/12 12:19:28;;;;;;;59.75;36.30;;;51.70;2227.20;;;;;;5055899;28;20024;-87
2021/01/12 12:21:59;;;;;;;62.60;42.40;;;51.50;2227.20;;;;;;5045256;28;20021;-88
2021/01/12 12:24:28;;;;;;;69.53;45.75;;;51.50;2227.20;;;;;;5055957;28;20024;-87
2021/01/12 12:26:56;;;;;;;62.95;41.05;;;51.50;2227.20;;;;;;5055152;28;20024;-86
2021/01/12 12:29:22;;;;;;;57.40;39.47;;;51.40;2227.20;;;;;;5055798;28;20024;-86
2021/01/12 12:31:53;;;;;;;58.35;38.40;;;51.40;2227.20;;;;;;5056240;28;20047;-87
2021/01/12 12:34:20;;;;;;;67.60;42.72;;;51.40;2227.20;;;;;;5057632;28;20025;-85
2021/01/12 12:36:46;;;;;;;70.18;44.15;;;51.30;2227.20;;;;;;5059470;28;20028;-86
2021/01/12 12:39:12;;;;;;;89.07;57.55;;;51.30;2227.20;;;;;;5059175;28;20027;-86
2021/01/12 12:41:38;;;;;;;83.57;55.75;;;51.30;2227.20;;;;;;5059552;28;20064;-86
2021/01/12 12:44:05;;;;;;;74.45;47.00;;;51.30;2227.20;;;;;;5059600;28;20028;-87
2021/01/12 12:46:31;;;;;;;74.63;49.03;;;51.60;2227.20;;;;;;5059037;28;20048;-87
2021/01/12 12:48:57;;;;;;;49.13;31.83;;;51.40;2227.20;;;;;;5059204;28;20046;-85
2021/01/12 12:51:24;;;;;;;54.83;35.20;;;51.30;2227.20;;;;;;5059111;28;20125;-87
2021/01/12 12:53:51;;;;;;;58.10;36.17;;;51.30;2227.20;;;;;;5059111;28;20039;-85
2021/01/12 12:56:17;;;;;;;60.97;38.17;;;51.30;2227.20;;;;;;5059839;28;20056;-83
2021/01/12 12:58:44;;;;;;;50.10;33.45;;;51.20;2227.20;;;;;;5059772;28;20371;-82
2021/01/12 13:01:13;;;;;;;52.40;34.85;;;51.30;2227.20;;;;;;5058997;28;20029;-87
2021/01/12 13:03:39;;;;;;;57.47;36.13;;;76.80;2227.20;;;;;;5059189;28;20063;-88
2021/01/12 13:06:05;;;;;;;62.08;40.85;;;51.20;2227.20;;;;;;5059044;28;20021;-88
2021/01/12 13:08:32;;;;;;;63.42;40.83;;;51.50;2227.20;;;;;;5059051;28;20111;-88
2021/01/12 13:11:00;;;;;;;61.95;37.60;;;51.50;2227.20;;;;;;5058944;28;20078;-87
2021/01/12 13:13:26;;;;;;;71.50;49.28;;;51.40;2227.20;;;;;;5055600;28;20021;-88
2021/01/12 13:15:53;;;;;;;70.03;45.20;;;51.50;2227.20;;;;;;5038586;28;20024;-88
2021/01/12 13:18:24;;;;;;;89.78;50.53;;;51.40;2227.20;;;;;;5038450;28;20029;-86
2021/01/12 13:20:51;;;;;;;64.68;39.83;;;51.30;2227.20;;;;;;5037214;28;20032;-86
2021/01/12 13:23:18;;;;;;;131.07;70.13;;;51.30;2227.20;;;;;;5038342;28;20056;-84
2021/01/12 13:25:46;;;;;;;80.38;50.22;;;51.40;2227.20;;;;;;5030557;28;20049;-86
2021/01/12 13:28:12;;;;;;;66.65;45.55;;;51.40;2227.20;;;;;;5038092;28;20040;-86
2021/01/12 13:30:38;;;;;;;73.93;47.22;;;51.30;2227.20;;;;;;5036509;28;20029;-87
2021/01/12 13:33:04;;;;;;;60.60;39.20;;;51.30;2227.20;;;;;;5056781;28;20029;-86
2021/01/12 13:35:30;;;;;;;59.70;39.08;;;51.30;2227.20;;;;;;5037323;28;20025;-85
2021/01/12 13:37:56;;;;;;;80.07;48.72;;;51.30;2227.20;;;;;;5038889;28;20090;-86
2021/01/12 13:40:22;;;;;;;89.68;54.10;;;51.40;2227.20;;;;;;5038272;28;20468;-87
2021/01/12 13:42:50;;;;;;;109.47;65.75;;;51.40;2227.20;;;;;;5038117;28;20120;-86
2021/01/12 13:45:17;;;;;;;84.25;51.03;;;51.40;2227.20;;;;;;5038411;28;20035;-85
2021/01/12 13:47:44;;;;;;;69.60;43.40;;;51.50;2227.20;;;;;;5038885;28;20032;-86
2021/01/12 13:50:12;;;;;;;86.85;53.20;;;51.40;2227.20;;;;;;5038070;28;20094;-87
2021/01/12 13:52:38;;;;;;;64.95;40.45;;;51.40;2227.20;;;;;;5038155;28;20029;-87
2021/01/12 13:55:06;;;;;;;87.88;52.40;;;51.30;2227.20;;;;;;5037774;28;20033;-89
2021/01/12 13:57:34;;;;;;;98.22;56.45;;;26.50;2201.60;;;;;;5038397;28;20036;-87
2021/01/12 14:00:09;;;;;;;75.38;45.10;;;51.40;2227.20;;;;;;5056184;28;20022;-87
2021/01/12 14:02:35;;;;;;;63.92;39.35;;;51.30;2227.20;;;;;;5037844;28;20039;-85
2021/01/12 14:05:04;;;;;;;63.67;39.33;;;51.30;2227.20;;;;;;5038269;28;20368;-88
2021/01/12 14:07:30;;;;;;;78.68;47.88;;;51.30;2227.20;;;;;;5038544;28;20479;-88
2021/01/12 14:09:56;;;;;;;69.75;41.75;;;51.20;2227.20;;;;;;5037416;28;20431;-87
2021/01/12 14:12:24;;;;;;;59.75;35.97;;;51.20;2227.20;;;;;;5037702;28;20092;-87
2021/01/12 14:14:51;;;;;;;61.97;38.92;;;51.20;2227.20;;;;;;5037885;28;20464;-86
2021/01/12 14:17:18;;;;;;;65.45;41.55;;;51.20;2227.20;;;;;;5037324;28;20072;-88
2021/01/12 14:19:46;;;;;;;56.35;36.95;;;51.30;2227.20;;;;;;5029560;28;20480;-87
2021/01/12 14:22:19;;;;;;;52.65;35.78;;;51.20;2227.20;;;;;;5054268;28;20029;-86
2021/01/12 14:24:47;;;;;;;65.90;40.08;;;51.20;2227.20;;;;;;5054383;28;20506;-87
2021/01/12 14:27:15;;;;;;;63.35;37.30;;;51.20;2227.20;;;;;;5054462;28;20123;-85
2021/01/12 14:29:42;;;;;;;60.20;38.20;;;26.50;2201.60;;;;;;5054330;28;20108;-85
2021/01/12 14:32:09;;;;;;;82.10;45.45;;;26.50;2201.60;;;;;;5054300;28;20109;-87
2021/01/12 14:34:35;;;;;;;86.25;48.00;;;26.50;2201.60;;;;;;5050147;28;20032;-86
2021/01/12 14:37:04;;;;;;;76.45;45.85;;;51.20;2227.20;;;;;;5055013;28;20052;-89
2021/01/12 14:43:06;;;;;;;74.93;43.75;;;26.50;2201.60;;;;;;5050613;28;20606;-90
2021/01/12 14:45:34;;;;;;;76.25;44.05;;;26.50;2201.60;;;;;;5045389;28;20024;-86
2021/01/12 14:48:00;;;;;;;94.97;53.55;;;26.50;2201.60;;;;;;5056832;28;20024;-87
2021/01/12 14:50:26;;;;;;;118.90;67.13;;;26.50;2201.60;;;;;;5056622;28;20459;-85
2021/01/12 14:52:55;;;;;;;101.55;59.08;;;26.50;2201.60;;;;;;5056926;28;20020;-88
2021/01/12 14:55:21;;;;;;;96.35;58.00;;;26.50;2201.60;;;;;;5057523;28;20109;-89
2021/01/12 14:57:47;;;;;;;88.28;52.63;;;26.40;2201.60;;;;;;5056237;28;20552;-84
2021/01/12 15:00:15;;;;;;;89.95;51.55;;;26.40;2201.60;;;;;;5056620;28;20029;-86
2021/01/12 15:02:41;;;;;;;87.47;51.72;;;26.40;2201.60;;;;;;5056584;28;20562;-86
2021/01/12 15:05:07;;;;;;;95.93;54.55;;;51.20;2227.20;;;;;;5036784;28;20021;-85
2021/01/12 15:07:34;;;;;;;93.03;55.88;;;26.40;2201.60;;;;;;5037395;28;20127;-87
2021/01/12 15:10:00;;;;;;;104.97;57.85;;;26.50;2201.60;;;;;;5041852;28;20452;-88
2021/01/12 15:12:26;;;;;;;113.05;65.75;;;51.20;2227.20;;;;;;5035809;28;20056;-84
2021/01/12 15:14:53;;;;;;;106.45;62.63;;;51.20;2227.20;;;;;;5035369;28;20027;-86
2021/01/12 15:17:19;;;;;;;94.55;56.38;;;51.20;2227.20;;;;;;5036017;28;20036;-85
2021/01/12 15:19:45;;;;;;;81.22;50.60;;;26.50;2201.60;;;;;;5033964;28;20113;-87
2021/01/12 15:22:11;;;;;;;84.95;47.22;;;26.50;2201.60;;;;;;5015672;28;20025;-86
2021/01/12 15:24:37;;;;;;;82.18;49.13;;;26.50;2201.60;;;;;;5016311;28;20473;-86
2021/01/12 15:27:03;;;;;;;88.65;52.67;;;26.50;2201.60;;;;;;5016482;28;20097;-86
2021/01/12 15:29:29;;;;;;;85.65;49.47;;;26.50;2201.60;;;;;;5016611;28;20469;-87
2021/01/12 15:31:58;;;;;;;86.32;48.83;;;26.50;2201.60;;;;;;5016568;28;20033;-84
2021/01/12 15:34:26;;;;;;;82.07;49.45;;;26.50;2201.60;;;;;;5016784;28;20029;-82
2021/01/12 15:36:52;;;;;;;111.57;65.60;;;26.50;2201.60;;;;;;5017710;28;20368;-86
2021/01/12 15:39:18;;;;;;;98.88;59.45;;;26.50;2201.60;;;;;;5017419;28;20029;-87